Russell, KS

5:46 PM CDT on September 03, 2015 (GMT -0500)
Ruppenthal Middle School | | Change Station
CLOSE
Current Station
Personal Weather Station
Location: Russell, KS
Elevation: 1854 ft
Nearby Weather Stations

Elev 1854 ft 38.89 °N, 98.86 °W | Updated 1 minute ago

Clear
Clear
95.5 °F
Feels Like 96 °F
N
20.0
Wind Variable Wind from SW
Gusts 29.0 mph

Today
High -- | Low -- °F
--% Chance of Precip.
Yesterday
High -- | Low -- °F
Precip. -- in
7:05 AM 8:02 PM
Waning Gibbous, 66% visible
Pressure 29.70 in
Visibility 10.0 miles
Clouds Clear
Heat Index 96 °F
Dew Point 60 °F
Humidity 31%
Rainfall 0.00 in
Snow Depth Not available.
UV 4 out of 12
Pollen 11.30 out of 12
Air Quality Not available.
Flu Activity Not available.
METAR KRSL 032153Z AUTO 18021G33KT 10SM CLR 36/14 A2977 RMK AO2 PK WND 17035/2129 SLP058 T03610144
Pressure 29.70 in
Visibility 10.0 miles
Clouds Clear
Heat Index 96 °F
Dew Point 60 °F
Humidity 31%
Rainfall 0.00 in
Snow Depth Not available.
UV 4 out of 12
Pollen 11.30 out of 12
Air Quality Not available.
Flu Activity Not available.
METAR KRSL 032153Z AUTO 18021G33KT 10SM CLR 36/14 A2977 RMK AO2 PK WND 17035/2129 SLP058 T03610144

10-Day Weather Forecast

×

Almanac

Astronomy

Sep. 03, 2015 Rise Set
Actual Time
Civil Twilight
Nautical Twilight
Astronomical Twilight
Moon
Length of Visible Light
Length of Day
Tomorrow will be .
, % of the Moon is Illuminated

Today's Extremes

State Highs State Lows

Community

WunderPhotos

Upload Photos

1,852,049 photos uploaded!

WunderBlogs® & News

Nearby

Air Quality

  Air Quality AQ Index Pollutant
Not available.

Snow Depth

Station Depth Elevation

Earthquake Activity

City Distance Mag. Time & Date
Minimum magnitude displayed is 2.5.

Coastal Water Temperatures

Place Temperature

Stations

Nearby Weather Stations

Station Location Temp. Windchill Dew Point Humidity Wind Precip. Elev Updated Type